sensor_id;sensor_type;location;lat;lon;timestamp;P1;durP1;ratioP1;P2;durP2;ratioP2
9240;SDS011;53485;49.326;9.738;2023-03-23T00:00:47;2.33;;;0.80;;
9240;SDS011;53485;49.326;9.738;2023-03-23T00:03:14;0.73;;;0.70;;
9240;SDS011;53485;49.326;9.738;2023-03-23T00:05:41;2.03;;;0.80;;
9240;SDS011;53485;49.326;9.738;2023-03-23T00:08:07;1.43;;;0.80;;
9240;SDS011;53485;49.326;9.738;2023-03-23T00:10:35;0.93;;;0.80;;
9240;SDS011;53485;49.326;9.738;2023-03-23T00:13:01;1.53;;;0.70;;
9240;SDS011;53485;49.326;9.738;2023-03-23T00:15:28;6.00;;;0.90;;
9240;SDS011;53485;49.326;9.738;2023-03-23T00:17:53;1.37;;;1.10;;
9240;SDS011;53485;49.326;9.738;2023-03-23T00:20:20;1.47;;;0.80;;
9240;SDS011;53485;49.326;9.738;2023-03-23T00:22:46;2.03;;;0.70;;
9240;SDS011;53485;49.326;9.738;2023-03-23T00:25:13;0.83;;;0.80;;
9240;SDS011;53485;49.326;9.738;2023-03-23T00:27:39;0.80;;;0.57;;
9240;SDS011;53485;49.326;9.738;2023-03-23T00:30:06;0.70;;;0.63;;
9240;SDS011;53485;49.326;9.738;2023-03-23T00:32:33;2.53;;;0.60;;
9240;SDS011;53485;49.326;9.738;2023-03-23T00:34:59;2.33;;;0.63;;
9240;SDS011;53485;49.326;9.738;2023-03-23T00:37:26;0.50;;;0.50;;
9240;SDS011;53485;49.326;9.738;2023-03-23T00:39:52;1.10;;;0.60;;
9240;SDS011;53485;49.326;9.738;2023-03-23T00:42:18;2.20;;;0.60;;
9240;SDS011;53485;49.326;9.738;2023-03-23T00:44:45;2.87;;;0.60;;
9240;SDS011;53485;49.326;9.738;2023-03-23T00:47:12;1.67;;;0.70;;
9240;SDS011;53485;49.326;9.738;2023-03-23T00:49:38;1.03;;;0.60;;
9240;SDS011;53485;49.326;9.738;2023-03-23T00:52:05;0.53;;;0.53;;
9240;SDS011;53485;49.326;9.738;2023-03-23T00:54:31;1.07;;;0.67;;
9240;SDS011;53485;49.326;9.738;2023-03-23T00:56:57;0.73;;;0.50;;
9240;SDS011;53485;49.326;9.738;2023-03-23T00:59:24;0.77;;;0.50;;
9240;SDS011;53485;49.326;9.738;2023-03-23T01:01:50;1.17;;;0.50;;
9240;SDS011;53485;49.326;9.738;2023-03-23T01:04:17;0.57;;;0.57;;
9240;SDS011;53485;49.326;9.738;2023-03-23T01:06:43;1.63;;;0.40;;
9240;SDS011;53485;49.326;9.738;2023-03-23T01:09:10;0.50;;;0.50;;
9240;SDS011;53485;49.326;9.738;2023-03-23T01:11:36;0.90;;;0.50;;
9240;SDS011;53485;49.326;9.738;2023-03-23T01:14:02;0.60;;;0.50;;
9240;SDS011;53485;49.326;9.738;2023-03-23T01:16:28;0.57;;;0.43;;
9240;SDS011;53485;49.326;9.738;2023-03-23T01:18:55;0.90;;;0.50;;
9240;SDS011;53485;49.326;9.738;2023-03-23T01:21:21;0.70;;;0.60;;
9240;SDS011;53485;49.326;9.738;2023-03-23T01:23:48;0.70;;;0.50;;
9240;SDS011;53485;49.326;9.738;2023-03-23T01:26:14;0.97;;;0.60;;
9240;SDS011;53485;49.326;9.738;2023-03-23T01:28:40;1.43;;;0.50;;
9240;SDS011;53485;49.326;9.738;2023-03-23T01:31:08;0.67;;;0.40;;
9240;SDS011;53485;49.326;9.738;2023-03-23T01:33:32;1.00;;;0.50;;
9240;SDS011;53485;49.326;9.738;2023-03-23T01:36:03;1.17;;;0.77;;
9240;SDS011;53485;49.326;9.738;2023-03-23T01:38:28;0.40;;;0.40;;
9240;SDS011;53485;49.326;9.738;2023-03-23T01:40:54;0.67;;;0.40;;
9240;SDS011;53485;49.326;9.738;2023-03-23T01:43:21;0.57;;;0.47;;
9240;SDS011;53485;49.326;9.738;2023-03-23T01:45:48;1.00;;;0.40;;
9240;SDS011;53485;49.326;9.738;2023-03-23T01:48:18;0.63;;;0.50;;
9240;SDS011;53485;49.326;9.738;2023-03-23T01:50:47;1.13;;;0.50;;
9240;SDS011;53485;49.326;9.738;2023-03-23T01:53:11;0.50;;;0.50;;
9240;SDS011;53485;49.326;9.738;2023-03-23T01:55:38;0.50;;;0.40;;
9240;SDS011;53485;49.326;9.738;2023-03-23T01:58:03;1.27;;;0.50;;
9240;SDS011;53485;49.326;9.738;2023-03-23T02:00:30;0.40;;;0.40;;
9240;SDS011;53485;49.326;9.738;2023-03-23T02:02:56;0.57;;;0.40;;
9240;SDS011;53485;49.326;9.738;2023-03-23T02:05:29;0.60;;;0.40;;
9240;SDS011;53485;49.326;9.738;2023-03-23T02:07:53;0.50;;;0.40;;
9240;SDS011;53485;49.326;9.738;2023-03-23T02:10:19;0.83;;;0.40;;
9240;SDS011;53485;49.326;9.738;2023-03-23T02:12:46;0.47;;;0.40;;
9240;SDS011;53485;49.326;9.738;2023-03-23T02:15:12;0.80;;;0.50;;
9240;SDS011;53485;49.326;9.738;2023-03-23T02:20:32;1.00;;;0.50;;
9240;SDS011;53485;49.326;9.738;2023-03-23T02:23:05;1.27;;;0.50;;
9240;SDS011;53485;49.326;9.738;2023-03-23T02:25:40;1.77;;;0.50;;
9240;SDS011;53485;49.326;9.738;2023-03-23T02:28:15;0.60;;;0.60;;
9240;SDS011;53485;49.326;9.738;2023-03-23T02:30:53;0.50;;;0.40;;
9240;SDS011;53485;49.326;9.738;2023-03-23T02:33:36;1.83;;;0.50;;
9240;SDS011;53485;49.326;9.738;2023-03-23T02:38:53;1.17;;;0.50;;
9240;SDS011;53485;49.326;9.738;2023-03-23T02:41:15;2.60;;;0.80;;
9240;SDS011;53485;49.326;9.738;2023-03-23T02:43:43;1.70;;;0.60;;
9240;SDS011;53485;49.326;9.738;2023-03-23T02:46:08;1.40;;;0.60;;
9240;SDS011;53485;49.326;9.738;2023-03-23T02:48:34;0.50;;;0.50;;
9240;SDS011;53485;49.326;9.738;2023-03-23T02:51:00;1.27;;;0.80;;
9240;SDS011;53485;49.326;9.738;2023-03-23T02:53:26;0.67;;;0.47;;
9240;SDS011;53485;49.326;9.738;2023-03-23T02:55:52;1.60;;;0.70;;
9240;SDS011;53485;49.326;9.738;2023-03-23T02:58:19;1.23;;;0.70;;
9240;SDS011;53485;49.326;9.738;2023-03-23T03:00:45;0.77;;;0.60;;
9240;SDS011;53485;49.326;9.738;2023-03-23T03:03:13;0.60;;;0.50;;
9240;SDS011;53485;49.326;9.738;2023-03-23T03:08:13;1.27;;;0.60;;
9240;SDS011;53485;49.326;9.738;2023-03-23T03:10:38;1.90;;;0.70;;
9240;SDS011;53485;49.326;9.738;2023-03-23T03:13:08;1.10;;;0.60;;
9240;SDS011;53485;49.326;9.738;2023-03-23T03:15:33;0.70;;;0.50;;
9240;SDS011;53485;49.326;9.738;2023-03-23T03:18:00;1.33;;;0.60;;
9240;SDS011;53485;49.326;9.738;2023-03-23T03:20:25;0.50;;;0.50;;
9240;SDS011;53485;49.326;9.738;2023-03-23T03:22:50;2.33;;;0.57;;
9240;SDS011;53485;49.326;9.738;2023-03-23T03:25:17;1.07;;;0.57;;
9240;SDS011;53485;49.326;9.738;2023-03-23T03:27:44;0.73;;;0.60;;
9240;SDS011;53485;49.326;9.738;2023-03-23T03:30:10;0.87;;;0.50;;
9240;SDS011;53485;49.326;9.738;2023-03-23T03:32:38;0.60;;;0.60;;
9240;SDS011;53485;49.326;9.738;2023-03-23T03:35:02;0.53;;;0.50;;
9240;SDS011;53485;49.326;9.738;2023-03-23T03:37:33;2.10;;;0.60;;
9240;SDS011;53485;49.326;9.738;2023-03-23T03:39:58;0.97;;;0.60;;
9240;SDS011;53485;49.326;9.738;2023-03-23T03:42:25;0.83;;;0.60;;
9240;SDS011;53485;49.326;9.738;2023-03-23T03:44:51;1.27;;;0.73;;
9240;SDS011;53485;49.326;9.738;2023-03-23T03:47:18;0.70;;;0.60;;
9240;SDS011;53485;49.326;9.738;2023-03-23T03:49:45;0.40;;;0.40;;
9240;SDS011;53485;49.326;9.738;2023-03-23T03:52:11;0.63;;;0.60;;
9240;SDS011;53485;49.326;9.738;2023-03-23T03:54:38;1.00;;;0.60;;
9240;SDS011;53485;49.326;9.738;2023-03-23T03:57:05;2.30;;;0.60;;
9240;SDS011;53485;49.326;9.738;2023-03-23T03:59:33;1.30;;;0.63;;
9240;SDS011;53485;49.326;9.738;2023-03-23T04:01:59;2.60;;;0.70;;
9240;SDS011;53485;49.326;9.738;2023-03-23T04:04:26;1.13;;;0.60;;
9240;SDS011;53485;49.326;9.738;2023-03-23T04:06:52;0.87;;;0.50;;
9240;SDS011;53485;49.326;9.738;2023-03-23T04:09:19;1.17;;;0.67;;
9240;SDS011;53485;49.326;9.738;2023-03-23T04:11:45;0.80;;;0.70;;
9240;SDS011;53485;49.326;9.738;2023-03-23T04:14:12;0.70;;;0.70;;
9240;SDS011;53485;49.326;9.738;2023-03-23T04:16:39;1.47;;;0.70;;
9240;SDS011;53485;49.326;9.738;2023-03-23T04:19:05;0.80;;;0.63;;
9240;SDS011;53485;49.326;9.738;2023-03-23T04:21:32;1.00;;;0.60;;
9240;SDS011;53485;49.326;9.738;2023-03-23T04:23:58;0.73;;;0.73;;
9240;SDS011;53485;49.326;9.738;2023-03-23T04:26:26;0.77;;;0.70;;
9240;SDS011;53485;49.326;9.738;2023-03-23T04:28:52;1.80;;;0.60;;
9240;SDS011;53485;49.326;9.738;2023-03-23T04:31:18;0.57;;;0.50;;
9240;SDS011;53485;49.326;9.738;2023-03-23T04:33:45;1.83;;;0.87;;
9240;SDS011;53485;49.326;9.738;2023-03-23T04:36:12;2.73;;;0.63;;
9240;SDS011;53485;49.326;9.738;2023-03-23T04:38:38;0.80;;;0.50;;
9240;SDS011;53485;49.326;9.738;2023-03-23T04:41:04;1.87;;;0.90;;
9240;SDS011;53485;49.326;9.738;2023-03-23T04:43:31;1.00;;;0.67;;
9240;SDS011;53485;49.326;9.738;2023-03-23T04:45:57;2.20;;;0.70;;
9240;SDS011;53485;49.326;9.738;2023-03-23T04:48:24;2.43;;;0.70;;
9240;SDS011;53485;49.326;9.738;2023-03-23T04:50:50;0.77;;;0.67;;
9240;SDS011;53485;49.326;9.738;2023-03-23T04:53:16;1.13;;;0.70;;
9240;SDS011;53485;49.326;9.738;2023-03-23T04:55:43;2.47;;;0.73;;
9240;SDS011;53485;49.326;9.738;2023-03-23T04:58:09;2.43;;;0.87;;
9240;SDS011;53485;49.326;9.738;2023-03-23T05:00:36;2.20;;;1.00;;
9240;SDS011;53485;49.326;9.738;2023-03-23T05:03:02;1.93;;;0.80;;
9240;SDS011;53485;49.326;9.738;2023-03-23T05:05:28;5.77;;;1.10;;
9240;SDS011;53485;49.326;9.738;2023-03-23T05:07:55;10.43;;;1.37;;
9240;SDS011;53485;49.326;9.738;2023-03-23T05:10:21;7.07;;;1.07;;
9240;SDS011;53485;49.326;9.738;2023-03-23T05:12:48;16.13;;;1.20;;
9240;SDS011;53485;49.326;9.738;2023-03-23T05:15:15;11.23;;;1.27;;
9240;SDS011;53485;49.326;9.738;2023-03-23T05:17:40;9.60;;;1.10;;
9240;SDS011;53485;49.326;9.738;2023-03-23T05:20:07;2.73;;;0.70;;
9240;SDS011;53485;49.326;9.738;2023-03-23T05:22:34;1.93;;;0.80;;
9240;SDS011;53485;49.326;9.738;2023-03-23T05:25:01;2.37;;;0.80;;
9240;SDS011;53485;49.326;9.738;2023-03-23T05:27:29;1.13;;;0.70;;
9240;SDS011;53485;49.326;9.738;2023-03-23T05:29:54;0.83;;;0.70;;
9240;SDS011;53485;49.326;9.738;2023-03-23T05:32:21;1.00;;;0.67;;
9240;SDS011;53485;49.326;9.738;2023-03-23T05:34:47;1.20;;;1.00;;
9240;SDS011;53485;49.326;9.738;2023-03-23T05:37:14;2.03;;;1.43;;
9240;SDS011;53485;49.326;9.738;2023-03-23T05:39:40;1.50;;;1.10;;
9240;SDS011;53485;49.326;9.738;2023-03-23T05:42:07;1.43;;;0.70;;
9240;SDS011;53485;49.326;9.738;2023-03-23T05:44:34;0.80;;;0.70;;
9240;SDS011;53485;49.326;9.738;2023-03-23T05:47:00;0.70;;;0.60;;
9240;SDS011;53485;49.326;9.738;2023-03-23T05:49:27;2.43;;;0.67;;
9240;SDS011;53485;49.326;9.738;2023-03-23T05:51:53;2.00;;;0.60;;
9240;SDS011;53485;49.326;9.738;2023-03-23T05:54:20;1.07;;;0.67;;
9240;SDS011;53485;49.326;9.738;2023-03-23T05:56:46;2.00;;;0.70;;
9240;SDS011;53485;49.326;9.738;2023-03-23T05:59:13;1.07;;;0.60;;
9240;SDS011;53485;49.326;9.738;2023-03-23T06:01:39;0.60;;;0.60;;
9240;SDS011;53485;49.326;9.738;2023-03-23T06:04:06;0.60;;;0.60;;
9240;SDS011;53485;49.326;9.738;2023-03-23T06:06:32;0.60;;;0.60;;
9240;SDS011;53485;49.326;9.738;2023-03-23T06:08:59;2.33;;;0.97;;
9240;SDS011;53485;49.326;9.738;2023-03-23T06:11:25;2.80;;;0.70;;
9240;SDS011;53485;49.326;9.738;2023-03-23T06:13:52;1.27;;;0.60;;
9240;SDS011;53485;49.326;9.738;2023-03-23T06:16:19;1.77;;;0.80;;
9240;SDS011;53485;49.326;9.738;2023-03-23T06:18:45;1.07;;;0.80;;
9240;SDS011;53485;49.326;9.738;2023-03-23T06:21:12;0.70;;;0.70;;
9240;SDS011;53485;49.326;9.738;2023-03-23T06:23:38;2.27;;;0.70;;
9240;SDS011;53485;49.326;9.738;2023-03-23T06:26:06;1.67;;;0.90;;
9240;SDS011;53485;49.326;9.738;2023-03-23T06:28:31;0.80;;;0.60;;
9240;SDS011;53485;49.326;9.738;2023-03-23T06:30:59;1.97;;;0.60;;
9240;SDS011;53485;49.326;9.738;2023-03-23T06:33:24;1.00;;;0.60;;
9240;SDS011;53485;49.326;9.738;2023-03-23T06:35:51;1.87;;;0.90;;
9240;SDS011;53485;49.326;9.738;2023-03-23T06:38:18;0.60;;;0.60;;
9240;SDS011;53485;49.326;9.738;2023-03-23T06:40:44;1.27;;;0.80;;
9240;SDS011;53485;49.326;9.738;2023-03-23T06:43:11;1.13;;;0.63;;
9240;SDS011;53485;49.326;9.738;2023-03-23T06:45:38;2.40;;;0.80;;
9240;SDS011;53485;49.326;9.738;2023-03-23T06:48:05;0.70;;;0.70;;
9240;SDS011;53485;49.326;9.738;2023-03-23T06:50:31;1.17;;;0.53;;
9240;SDS011;53485;49.326;9.738;2023-03-23T06:52:58;0.90;;;0.80;;
9240;SDS011;53485;49.326;9.738;2023-03-23T06:55:24;1.00;;;0.90;;
9240;SDS011;53485;49.326;9.738;2023-03-23T06:57:51;2.63;;;0.70;;
9240;SDS011;53485;49.326;9.738;2023-03-23T07:00:18;1.67;;;0.70;;
9240;SDS011;53485;49.326;9.738;2023-03-23T07:02:44;0.70;;;0.70;;
9240;SDS011;53485;49.326;9.738;2023-03-23T07:05:11;2.80;;;0.80;;
9240;SDS011;53485;49.326;9.738;2023-03-23T07:07:38;1.07;;;0.67;;
9240;SDS011;53485;49.326;9.738;2023-03-23T07:10:04;1.70;;;0.80;;
9240;SDS011;53485;49.326;9.738;2023-03-23T07:12:30;1.77;;;0.90;;
9240;SDS011;53485;49.326;9.738;2023-03-23T07:14:57;1.20;;;0.70;;
9240;SDS011;53485;49.326;9.738;2023-03-23T07:17:24;1.00;;;0.80;;
9240;SDS011;53485;49.326;9.738;2023-03-23T07:19:50;0.83;;;0.70;;
9240;SDS011;53485;49.326;9.738;2023-03-23T07:22:16;1.33;;;0.90;;
9240;SDS011;53485;49.326;9.738;2023-03-23T07:24:43;1.10;;;0.90;;
9240;SDS011;53485;49.326;9.738;2023-03-23T07:27:10;1.00;;;0.90;;
9240;SDS011;53485;49.326;9.738;2023-03-23T07:29:36;1.07;;;0.90;;
9240;SDS011;53485;49.326;9.738;2023-03-23T07:32:03;1.23;;;0.90;;
9240;SDS011;53485;49.326;9.738;2023-03-23T07:34:29;0.87;;;0.87;;
9240;SDS011;53485;49.326;9.738;2023-03-23T07:36:56;1.63;;;0.80;;
9240;SDS011;53485;49.326;9.738;2023-03-23T07:39:22;1.87;;;0.83;;
9240;SDS011;53485;49.326;9.738;2023-03-23T07:41:50;2.97;;;0.93;;
9240;SDS011;53485;49.326;9.738;2023-03-23T07:44:15;2.10;;;1.00;;
9240;SDS011;53485;49.326;9.738;2023-03-23T07:46:42;0.80;;;0.80;;
9240;SDS011;53485;49.326;9.738;2023-03-23T07:49:08;0.83;;;0.67;;
9240;SDS011;53485;49.326;9.738;2023-03-23T07:51:34;1.07;;;0.70;;
9240;SDS011;53485;49.326;9.738;2023-03-23T07:54:00;2.37;;;0.80;;
9240;SDS011;53485;49.326;9.738;2023-03-23T07:56:26;1.37;;;0.60;;
9240;SDS011;53485;49.326;9.738;2023-03-23T07:58:53;1.17;;;0.90;;
9240;SDS011;53485;49.326;9.738;2023-03-23T08:01:19;0.80;;;0.80;;
9240;SDS011;53485;49.326;9.738;2023-03-23T08:03:45;0.70;;;0.70;;
9240;SDS011;53485;49.326;9.738;2023-03-23T08:06:12;1.00;;;0.90;;
9240;SDS011;53485;49.326;9.738;2023-03-23T08:08:38;1.50;;;0.80;;
9240;SDS011;53485;49.326;9.738;2023-03-23T08:11:05;1.37;;;0.90;;
9240;SDS011;53485;49.326;9.738;2023-03-23T08:13:31;2.60;;;0.90;;
9240;SDS011;53485;49.326;9.738;2023-03-23T08:15:57;0.77;;;0.60;;
9240;SDS011;53485;49.326;9.738;2023-03-23T08:18:24;2.10;;;1.00;;
9240;SDS011;53485;49.326;9.738;2023-03-23T08:20:50;1.27;;;0.80;;
9240;SDS011;53485;49.326;9.738;2023-03-23T08:23:16;1.33;;;0.83;;
9240;SDS011;53485;49.326;9.738;2023-03-23T08:25:43;1.07;;;0.80;;
9240;SDS011;53485;49.326;9.738;2023-03-23T08:28:09;1.53;;;0.77;;
9240;SDS011;53485;49.326;9.738;2023-03-23T08:30:37;1.07;;;0.90;;
9240;SDS011;53485;49.326;9.738;2023-03-23T08:33:02;3.73;;;1.00;;
9240;SDS011;53485;49.326;9.738;2023-03-23T08:35:29;1.10;;;0.90;;
9240;SDS011;53485;49.326;9.738;2023-03-23T08:37:55;1.93;;;1.33;;
9240;SDS011;53485;49.326;9.738;2023-03-23T08:40:22;1.47;;;0.97;;
9240;SDS011;53485;49.326;9.738;2023-03-23T08:42:48;2.07;;;1.17;;
9240;SDS011;53485;49.326;9.738;2023-03-23T08:45:15;3.97;;;1.00;;
9240;SDS011;53485;49.326;9.738;2023-03-23T08:47:40;1.23;;;1.00;;
9240;SDS011;53485;49.326;9.738;2023-03-23T08:50:07;1.17;;;0.93;;
9240;SDS011;53485;49.326;9.738;2023-03-23T08:52:33;1.20;;;1.00;;
9240;SDS011;53485;49.326;9.738;2023-03-23T08:54:59;2.20;;;1.00;;
9240;SDS011;53485;49.326;9.738;2023-03-23T08:57:25;2.40;;;0.87;;
9240;SDS011;53485;49.326;9.738;2023-03-23T08:59:52;4.57;;;1.00;;
9240;SDS011;53485;49.326;9.738;2023-03-23T09:02:18;1.33;;;1.03;;
9240;SDS011;53485;49.326;9.738;2023-03-23T09:04:44;1.40;;;0.90;;
9240;SDS011;53485;49.326;9.738;2023-03-23T09:07:11;2.13;;;1.10;;
9240;SDS011;53485;49.326;9.738;2023-03-23T09:09:37;2.40;;;0.80;;
9240;SDS011;53485;49.326;9.738;2023-03-23T09:12:03;2.90;;;0.87;;
9240;SDS011;53485;49.326;9.738;2023-03-23T09:14:30;3.07;;;0.70;;
9240;SDS011;53485;49.326;9.738;2023-03-23T09:16:56;2.43;;;1.73;;
9240;SDS011;53485;49.326;9.738;2023-03-23T09:19:23;2.10;;;1.17;;
9240;SDS011;53485;49.326;9.738;2023-03-23T09:21:49;2.13;;;0.90;;
9240;SDS011;53485;49.326;9.738;2023-03-23T09:24:16;2.30;;;1.20;;
9240;SDS011;53485;49.326;9.738;2023-03-23T09:26:42;4.43;;;1.17;;
9240;SDS011;53485;49.326;9.738;2023-03-23T09:29:09;0.77;;;0.77;;
9240;SDS011;53485;49.326;9.738;2023-03-23T09:31:35;1.10;;;0.77;;
9240;SDS011;53485;49.326;9.738;2023-03-23T09:34:02;1.50;;;0.80;;
9240;SDS011;53485;49.326;9.738;2023-03-23T09:36:28;2.00;;;0.80;;
9240;SDS011;53485;49.326;9.738;2023-03-23T09:38:55;2.40;;;1.00;;
9240;SDS011;53485;49.326;9.738;2023-03-23T09:41:31;1.73;;;0.80;;
9240;SDS011;53485;49.326;9.738;2023-03-23T09:46:26;0.87;;;0.80;;
9240;SDS011;53485;49.326;9.738;2023-03-23T09:48:51;1.30;;;0.83;;
9240;SDS011;53485;49.326;9.738;2023-03-23T09:51:22;0.97;;;0.90;;
9240;SDS011;53485;49.326;9.738;2023-03-23T09:53:48;2.50;;;1.20;;
9240;SDS011;53485;49.326;9.738;2023-03-23T09:56:12;0.60;;;0.60;;
9240;SDS011;53485;49.326;9.738;2023-03-23T09:58:42;1.57;;;0.90;;
9240;SDS011;53485;49.326;9.738;2023-03-23T10:01:07;1.17;;;0.80;;
9240;SDS011;53485;49.326;9.738;2023-03-23T10:03:35;1.23;;;0.80;;
9240;SDS011;53485;49.326;9.738;2023-03-23T10:05:59;2.20;;;1.10;;
9240;SDS011;53485;49.326;9.738;2023-03-23T10:08:26;3.10;;;0.90;;
9240;SDS011;53485;49.326;9.738;2023-03-23T10:13:27;2.53;;;1.03;;
9240;SDS011;53485;49.326;9.738;2023-03-23T10:15:50;3.03;;;1.00;;
9240;SDS011;53485;49.326;9.738;2023-03-23T10:18:20;5.63;;;1.10;;
9240;SDS011;53485;49.326;9.738;2023-03-23T10:20:47;1.10;;;1.00;;
9240;SDS011;53485;49.326;9.738;2023-03-23T10:23:13;2.17;;;1.97;;
9240;SDS011;53485;49.326;9.738;2023-03-23T10:25:41;1.63;;;1.10;;
9240;SDS011;53485;49.326;9.738;2023-03-23T10:28:05;2.93;;;1.20;;
9240;SDS011;53485;49.326;9.738;2023-03-23T10:30:32;2.13;;;1.50;;
9240;SDS011;53485;49.326;9.738;2023-03-23T10:32:58;2.70;;;1.00;;
9240;SDS011;53485;49.326;9.738;2023-03-23T10:35:26;4.93;;;1.80;;
9240;SDS011;53485;49.326;9.738;2023-03-23T10:37:53;1.77;;;1.17;;
9240;SDS011;53485;49.326;9.738;2023-03-23T10:40:19;2.60;;;0.80;;
9240;SDS011;53485;49.326;9.738;2023-03-23T10:42:44;1.17;;;1.07;;
9240;SDS011;53485;49.326;9.738;2023-03-23T10:45:12;2.43;;;1.00;;
9240;SDS011;53485;49.326;9.738;2023-03-23T10:47:38;1.10;;;0.90;;
9240;SDS011;53485;49.326;9.738;2023-03-23T10:50:04;3.03;;;1.00;;
9240;SDS011;53485;49.326;9.738;2023-03-23T10:52:32;3.07;;;0.90;;
9240;SDS011;53485;49.326;9.738;2023-03-23T10:54:58;1.13;;;0.90;;
9240;SDS011;53485;49.326;9.738;2023-03-23T10:57:25;0.97;;;0.87;;
9240;SDS011;53485;49.326;9.738;2023-03-23T10:59:50;1.10;;;0.90;;
9240;SDS011;53485;49.326;9.738;2023-03-23T11:02:17;1.00;;;0.87;;
9240;SDS011;53485;49.326;9.738;2023-03-23T11:04:45;1.30;;;1.10;;
9240;SDS011;53485;49.326;9.738;2023-03-23T11:07:13;1.07;;;0.90;;
9240;SDS011;53485;49.326;9.738;2023-03-23T11:09:38;1.57;;;0.87;;
9240;SDS011;53485;49.326;9.738;2023-03-23T11:12:03;3.23;;;1.30;;
9240;SDS011;53485;49.326;9.738;2023-03-23T11:14:30;1.43;;;0.90;;
9240;SDS011;53485;49.326;9.738;2023-03-23T11:16:56;1.30;;;0.70;;
9240;SDS011;53485;49.326;9.738;2023-03-23T11:19:23;1.20;;;0.80;;
9240;SDS011;53485;49.326;9.738;2023-03-23T11:21:49;0.93;;;0.80;;
9240;SDS011;53485;49.326;9.738;2023-03-23T11:24:14;1.53;;;0.60;;
9240;SDS011;53485;49.326;9.738;2023-03-23T11:26:40;2.40;;;0.80;;
9240;SDS011;53485;49.326;9.738;2023-03-23T11:29:10;3.63;;;1.43;;
9240;SDS011;53485;49.326;9.738;2023-03-23T11:31:36;2.10;;;0.80;;
9240;SDS011;53485;49.326;9.738;2023-03-23T11:34:03;2.27;;;0.80;;
9240;SDS011;53485;49.326;9.738;2023-03-23T11:36:29;1.10;;;0.90;;
9240;SDS011;53485;49.326;9.738;2023-03-23T11:38:54;1.10;;;0.60;;
9240;SDS011;53485;49.326;9.738;2023-03-23T11:41:21;1.70;;;0.60;;
9240;SDS011;53485;49.326;9.738;2023-03-23T11:43:47;0.80;;;0.60;;
9240;SDS011;53485;49.326;9.738;2023-03-23T11:46:18;0.63;;;0.60;;
9240;SDS011;53485;49.326;9.738;2023-03-23T11:48:43;1.27;;;0.70;;
9240;SDS011;53485;49.326;9.738;2023-03-23T11:51:13;1.10;;;0.70;;
9240;SDS011;53485;49.326;9.738;2023-03-23T11:53:41;1.77;;;0.77;;
9240;SDS011;53485;49.326;9.738;2023-03-23T11:56:22;1.43;;;0.70;;
9240;SDS011;53485;49.326;9.738;2023-03-23T11:58:44;1.63;;;0.70;;
9240;SDS011;53485;49.326;9.738;2023-03-23T12:01:21;0.60;;;0.60;;
9240;SDS011;53485;49.326;9.738;2023-03-23T12:03:56;2.40;;;0.80;;
9240;SDS011;53485;49.326;9.738;2023-03-23T12:06:41;1.50;;;0.93;;
9240;SDS011;53485;49.326;9.738;2023-03-23T12:09:05;1.57;;;0.80;;
9240;SDS011;53485;49.326;9.738;2023-03-23T12:11:31;2.20;;;0.80;;
9240;SDS011;53485;49.326;9.738;2023-03-23T12:14:00;1.03;;;0.90;;
9240;SDS011;53485;49.326;9.738;2023-03-23T12:16:32;1.23;;;0.87;;
9240;SDS011;53485;49.326;9.738;2023-03-23T12:24:37;1.77;;;1.10;;
9240;SDS011;53485;49.326;9.738;2023-03-23T12:27:06;1.73;;;1.00;;
9240;SDS011;53485;49.326;9.738;2023-03-23T12:29:33;1.07;;;0.90;;
9240;SDS011;53485;49.326;9.738;2023-03-23T12:32:06;1.53;;;1.00;;
9240;SDS011;53485;49.326;9.738;2023-03-23T12:34:32;1.40;;;1.10;;
9240;SDS011;53485;49.326;9.738;2023-03-23T12:36:59;1.63;;;1.13;;
9240;SDS011;53485;49.326;9.738;2023-03-23T12:41:59;1.47;;;0.80;;
9240;SDS011;53485;49.326;9.738;2023-03-23T12:44:23;1.67;;;0.80;;
9240;SDS011;53485;49.326;9.738;2023-03-23T12:46:51;2.93;;;0.97;;
9240;SDS011;53485;49.326;9.738;2023-03-23T12:49:19;1.60;;;0.90;;
9240;SDS011;53485;49.326;9.738;2023-03-23T12:52:19;1.93;;;0.90;;
9240;SDS011;53485;49.326;9.738;2023-03-23T12:54:30;0.80;;;0.80;;
9240;SDS011;53485;49.326;9.738;2023-03-23T12:56:57;1.40;;;0.90;;
9240;SDS011;53485;49.326;9.738;2023-03-23T12:59:23;1.27;;;1.10;;
9240;SDS011;53485;49.326;9.738;2023-03-23T13:01:48;1.33;;;0.93;;
9240;SDS011;53485;49.326;9.738;2023-03-23T13:04:16;2.50;;;0.90;;
9240;SDS011;53485;49.326;9.738;2023-03-23T13:06:41;1.80;;;0.97;;
9240;SDS011;53485;49.326;9.738;2023-03-23T13:09:10;1.90;;;0.93;;
9240;SDS011;53485;49.326;9.738;2023-03-23T13:11:36;2.07;;;1.00;;
9240;SDS011;53485;49.326;9.738;2023-03-23T13:14:06;1.10;;;1.00;;
9240;SDS011;53485;49.326;9.738;2023-03-23T13:19:04;1.00;;;0.90;;
9240;SDS011;53485;49.326;9.738;2023-03-23T13:21:30;1.87;;;1.33;;
9240;SDS011;53485;49.326;9.738;2023-03-23T13:23:58;1.40;;;1.10;;
9240;SDS011;53485;49.326;9.738;2023-03-23T13:26:23;1.20;;;1.00;;
9240;SDS011;53485;49.326;9.738;2023-03-23T13:28:58;1.10;;;1.00;;
9240;SDS011;53485;49.326;9.738;2023-03-23T13:31:27;1.63;;;1.00;;
9240;SDS011;53485;49.326;9.738;2023-03-23T13:33:52;1.00;;;0.90;;
9240;SDS011;53485;49.326;9.738;2023-03-23T13:36:26;1.67;;;0.97;;
9240;SDS011;53485;49.326;9.738;2023-03-23T13:38:46;1.53;;;1.23;;
9240;SDS011;53485;49.326;9.738;2023-03-23T13:41:11;1.70;;;1.10;;
9240;SDS011;53485;49.326;9.738;2023-03-23T13:43:37;1.00;;;0.90;;
9240;SDS011;53485;49.326;9.738;2023-03-23T13:46:08;1.47;;;1.07;;
9240;SDS011;53485;49.326;9.738;2023-03-23T13:48:40;0.90;;;0.80;;
9240;SDS011;53485;49.326;9.738;2023-03-23T13:51:22;1.47;;;1.37;;
9240;SDS011;53485;49.326;9.738;2023-03-23T13:56:07;1.60;;;0.90;;
9240;SDS011;53485;49.326;9.738;2023-03-23T13:58:43;1.10;;;1.00;;
9240;SDS011;53485;49.326;9.738;2023-03-23T14:01:03;2.00;;;1.23;;
9240;SDS011;53485;49.326;9.738;2023-03-23T14:03:33;3.93;;;1.00;;
9240;SDS011;53485;49.326;9.738;2023-03-23T14:06:03;2.73;;;1.30;;
9240;SDS011;53485;49.326;9.738;2023-03-23T14:08:38;2.63;;;1.20;;
9240;SDS011;53485;49.326;9.738;2023-03-23T14:11:11;1.97;;;0.93;;
9240;SDS011;53485;49.326;9.738;2023-03-23T14:13:43;3.37;;;1.00;;
9240;SDS011;53485;49.326;9.738;2023-03-23T14:16:15;2.07;;;1.30;;
9240;SDS011;53485;49.326;9.738;2023-03-23T14:18:40;3.93;;;1.00;;
9240;SDS011;53485;49.326;9.738;2023-03-23T14:21:11;1.60;;;1.10;;
9240;SDS011;53485;49.326;9.738;2023-03-23T14:23:32;2.20;;;1.17;;
9240;SDS011;53485;49.326;9.738;2023-03-23T14:26:00;1.50;;;1.27;;
9240;SDS011;53485;49.326;9.738;2023-03-23T14:28:27;4.20;;;1.13;;
9240;SDS011;53485;49.326;9.738;2023-03-23T14:30:52;2.50;;;1.20;;
9240;SDS011;53485;49.326;9.738;2023-03-23T14:33:18;1.67;;;1.30;;
9240;SDS011;53485;49.326;9.738;2023-03-23T14:35:44;2.57;;;1.00;;
9240;SDS011;53485;49.326;9.738;2023-03-23T14:38:14;2.30;;;1.37;;
9240;SDS011;53485;49.326;9.738;2023-03-23T14:40:37;2.43;;;1.50;;
9240;SDS011;53485;49.326;9.738;2023-03-23T14:43:03;1.23;;;1.03;;
9240;SDS011;53485;49.326;9.738;2023-03-23T14:45:30;1.73;;;1.20;;
9240;SDS011;53485;49.326;9.738;2023-03-23T14:47:57;2.33;;;1.00;;
9240;SDS011;53485;49.326;9.738;2023-03-23T14:50:25;3.67;;;1.20;;
9240;SDS011;53485;49.326;9.738;2023-03-23T14:52:49;2.40;;;1.37;;
9240;SDS011;53485;49.326;9.738;2023-03-23T14:55:17;2.80;;;1.40;;
9240;SDS011;53485;49.326;9.738;2023-03-23T14:57:42;2.00;;;1.30;;
9240;SDS011;53485;49.326;9.738;2023-03-23T15:00:15;3.43;;;1.63;;
9240;SDS011;53485;49.326;9.738;2023-03-23T15:02:40;1.73;;;1.63;;
9240;SDS011;53485;49.326;9.738;2023-03-23T15:05:10;3.87;;;1.67;;
9240;SDS011;53485;49.326;9.738;2023-03-23T15:07:35;5.30;;;1.80;;
9240;SDS011;53485;49.326;9.738;2023-03-23T15:10:04;2.00;;;1.60;;
9240;SDS011;53485;49.326;9.738;2023-03-23T15:12:28;2.20;;;1.30;;
9240;SDS011;53485;49.326;9.738;2023-03-23T15:14:54;1.93;;;1.10;;
9240;SDS011;53485;49.326;9.738;2023-03-23T15:17:21;1.50;;;1.30;;
9240;SDS011;53485;49.326;9.738;2023-03-23T15:19:46;2.73;;;1.27;;
9240;SDS011;53485;49.326;9.738;2023-03-23T15:22:18;3.10;;;1.30;;
9240;SDS011;53485;49.326;9.738;2023-03-23T15:24:41;2.57;;;1.93;;